Portada
METAR-TAF:

METAR-TAF

Aeroports :

Nakhon Phanom, Tailàndia

latitud: 17-23-02N, longitud: 104-38-35E, altitud: 179 m

Observació

L'informe es va fer fa 1 hora i 9 minuts, a les 01:00 UTC
Vent 2 kt amb direcció variable
Temperatura 20°C
Humitat 83%
Pressió 1019 hPa
Visibilitat: 5000 m
boirina

METAR: VTUW 130100Z VRB02KT 5000 BR NSC 20/17 Q1019 NOSIG

Hora: 09:09 (02:09 UTC)

Pronòstic

L'informe es va fer fa 3 hores i 9 minuts, a les 23:00 UTC
Pronòstic vàlid del 13 a les 00 UTC al 13 a les 24 UTC
Vent 5 kt del Est/Nord-Est
Visibilitat: 3000 m
boirina
Evolucionant progressivament
l' 13 a les 03 UTC al 13 a les 05 UTC
Visibilitat: 8000 m

TAF: VTUW 122300Z 1300/1324 07005KT 3000 BR NSC BECMG 1303/1305 8000 NSW

Observacions i pronòstics meteorològics de més de 4000 aeroports (METAR i TAF).

Les estacions disponibles són els punts grocs i vermells al mapa.

Posi el ratolí al punt desitjat per veure el nom de l'estació.

Feu clic per veure les observacions i els pronòstics meteorològics.

Per canviar el mapa: feu clic els botons verds amb una creu de color negre per apropar; al botó verd amb un guió per allunyar la imatge; o en les fletxes verdes per a mapes adjacents.


METAR-TAF: